Terminal Aerodrome Forecast
Issued by NWS

Home | Current Version | Previous Version | Graphics & Text | Print | Product List | Glossary On
Versions: 1 2 3 4 5 6 7 8 9 10 11 12
000
FTUS43 KIWX 312320
TAFSBN
TAF
KSBN 312320Z 0100/0124 00000KT P6SM SKC
     FM010700 20002KT 3SM BR SCT020
      TEMPO 0110/0112 1SM BR
     FM011400 21008KT P6SM SCT030=

USA.gov is the U.S. government's official web portal to all federal, state and local government web resources and services.